createdAt,value
2019-04-28T00:01:38.452Z,84.90
2019-04-28T00:04:07.812Z,84.80
2019-04-28T00:06:36.950Z,85.40
2019-04-28T00:09:08.627Z,86.40
2019-04-28T00:11:38.844Z,86.10
2019-04-28T00:14:08.501Z,86.00
2019-04-28T00:16:37.819Z,86.20
2019-04-28T00:19:07.248Z,86.70
2019-04-28T00:21:43.934Z,86.00
2019-04-28T00:24:32.853Z,85.90
2019-04-28T00:27:03.561Z,85.90
2019-04-28T00:29:40.269Z,85.90
2019-04-28T00:32:03.668Z,85.50
2019-04-28T00:34:32.831Z,85.70
2019-04-28T00:37:03.683Z,85.80
2019-04-28T00:39:33.042Z,85.10
2019-04-28T00:42:03.345Z,84.70
2019-04-28T00:44:32.732Z,84.50
2019-04-28T00:47:01.915Z,85.30
2019-04-28T00:49:46.489Z,85.20
2019-04-28T00:52:17.025Z,84.80
2019-04-28T00:54:47.422Z,84.20
2019-04-28T00:57:16.571Z,84.80
2019-04-28T00:59:55.181Z,85.10
2019-04-28T01:02:21.060Z,85.10
2019-04-28T01:04:51.427Z,85.90
2019-04-28T01:07:21.290Z,86.70
2019-04-28T01:09:51.715Z,87.20
2019-04-28T01:12:21.430Z,88.50
2019-04-28T01:14:54.545Z,88.70
2019-04-28T01:17:27.000Z,89.20
2019-04-28T01:20:00.805Z,88.90
2019-04-28T01:22:30.097Z,89.20
2019-04-28T01:24:59.795Z,88.60
2019-04-28T01:27:30.613Z,88.10
2019-04-28T01:30:08.364Z,89.30
2019-04-28T01:32:35.621Z,88.30
2019-04-28T01:35:05.686Z,88.30
2019-04-28T01:37:35.019Z,88.30
2019-04-28T01:40:06.136Z,89.60
2019-04-28T01:42:35.350Z,88.60
2019-04-28T01:45:06.277Z,87.40
2019-04-28T01:47:35.425Z,87.50
2019-04-28T01:50:04.945Z,87.20
2019-04-28T01:52:34.317Z,87.30
2019-04-28T01:55:04.791Z,87.70
2019-04-28T01:57:34.012Z,87.60
2019-04-28T02:00:21.371Z,86.90
2019-04-28T02:02:40.714Z,86.70
2019-04-28T02:05:09.970Z,86.70
2019-04-28T02:07:40.753Z,86.20
2019-04-28T02:10:10.345Z,86.40
2019-04-28T02:12:40.363Z,86.30
2019-04-28T02:15:10.492Z,85.90
2019-04-28T02:17:40.250Z,85.70
2019-04-28T02:20:10.418Z,85.50
2019-04-28T02:22:41.394Z,85.80
2019-04-28T02:25:10.549Z,85.70
2019-04-28T02:27:40.134Z,85.40
2019-04-28T02:30:11.373Z,85.50
2019-04-28T02:32:41.405Z,84.90
2019-04-28T02:35:10.955Z,85.00
2019-04-28T02:37:40.739Z,85.10
2019-04-28T02:40:10.872Z,85.00
2019-04-28T02:42:41.155Z,85.40
2019-04-28T02:45:11.694Z,85.50
2019-04-28T02:47:45.722Z,84.90
2019-04-28T02:50:21.094Z,84.70
2019-04-28T02:52:55.022Z,84.90
2019-04-28T02:55:24.370Z,84.30
2019-04-28T02:57:53.528Z,83.70
2019-04-28T03:00:22.784Z,84.10
2019-04-28T03:02:51.981Z,84.10
2019-04-28T03:05:21.891Z,82.90
2019-04-28T03:07:52.095Z,83.40
2019-04-28T03:10:21.735Z,83.90
2019-04-28T03:12:51.933Z,83.20
2019-04-28T03:15:21.306Z,83.30
2019-04-28T03:17:53.000Z,83.00
2019-04-28T03:20:21.438Z,83.20
2019-04-28T03:22:51.387Z,83.00
2019-04-28T03:25:25.053Z,82.70
2019-04-28T03:28:04.799Z,82.60
2019-04-28T03:30:54.100Z,82.60
2019-04-28T03:33:26.146Z,82.70
2019-04-28T03:35:55.473Z,83.40
2019-04-28T03:38:24.644Z,82.80
2019-04-28T03:40:53.776Z,82.30
2019-04-28T03:43:22.938Z,82.40
2019-04-28T03:46:03.697Z,82.40
2019-04-28T03:48:33.704Z,82.50
2019-04-28T03:51:04.144Z,81.90
2019-04-28T03:53:33.302Z,82.10
2019-04-28T03:56:03.585Z,81.90
2019-04-28T03:58:32.720Z,82.30
2019-04-28T04:01:03.246Z,82.00
2019-04-28T04:03:32.699Z,82.30
2019-04-28T04:06:01.846Z,82.30
2019-04-28T04:08:31.257Z,81.60
2019-04-28T04:11:11.447Z,81.90
2019-04-28T04:13:45.199Z,81.90
2019-04-28T04:16:22.047Z,81.80
2019-04-28T04:19:00.654Z,82.10
2019-04-28T04:21:30.986Z,82.20
2019-04-28T04:24:00.990Z,82.60
2019-04-28T04:26:33.214Z,82.50
2019-04-28T04:29:01.338Z,83.00
2019-04-28T04:31:31.758Z,83.20
2019-04-28T04:34:03.430Z,82.70
2019-04-28T04:36:32.217Z,82.70
2019-04-28T04:39:02.061Z,82.50
2019-04-28T04:41:33.001Z,82.20
2019-04-28T04:44:02.157Z,82.30
2019-04-28T04:46:31.678Z,82.50
2019-04-28T04:49:01.064Z,82.20
2019-04-28T04:51:30.891Z,81.90
2019-04-28T04:54:01.523Z,82.20
2019-04-28T04:56:30.841Z,82.10
2019-04-28T04:59:02.663Z,81.70
2019-04-28T05:01:35.329Z,80.40
2019-04-28T05:04:07.182Z,80.90
2019-04-28T05:06:41.226Z,80.60
2019-04-28T05:09:10.333Z,80.00
2019-04-28T05:11:40.198Z,79.90
2019-04-28T05:14:11.672Z,79.00
2019-04-28T05:16:40.490Z,78.50
2019-04-28T05:19:10.380Z,78.10
2019-04-28T05:21:40.395Z,77.20
2019-04-28T05:24:27.782Z,77.90
2019-04-28T05:26:56.978Z,76.70
2019-04-28T05:29:27.054Z,76.40
2019-04-28T05:31:59.736Z,76.20
2019-04-28T05:34:29.708Z,76.20
2019-04-28T05:37:00.659Z,75.40
2019-04-28T05:39:29.994Z,75.50
2019-04-28T05:42:00.824Z,75.20
2019-04-28T05:44:31.967Z,75.00
2019-04-28T05:47:00.875Z,74.90
2019-04-28T05:49:43.826Z,75.00
2019-04-28T05:52:30.637Z,74.30
2019-04-28T05:55:20.700Z,71.80
2019-04-28T05:57:57.442Z,69.50
2019-04-28T06:00:31.265Z,67.40
2019-04-28T06:03:02.152Z,64.90
2019-04-28T06:05:31.972Z,62.10
2019-04-28T06:08:15.146Z,62.60
2019-04-28T06:10:44.287Z,60.30
2019-04-28T06:13:13.438Z,60.70
2019-04-28T06:15:42.606Z,58.40
2019-04-28T06:18:11.774Z,56.70
2019-04-28T06:20:40.921Z,58.30
2019-04-28T06:23:10.075Z,57.20
2019-04-28T06:25:39.254Z,56.60
2019-04-28T06:28:08.394Z,54.50
2019-04-28T06:30:37.580Z,53.50
2019-04-28T06:33:08.217Z,52.60
2019-04-28T06:35:37.614Z,53.00
2019-04-28T06:38:06.768Z,54.80
2019-04-28T06:40:35.953Z,53.60
2019-04-28T06:43:05.116Z,52.50
2019-04-28T06:45:35.451Z,52.00
2019-04-28T06:48:04.630Z,51.00
2019-04-28T06:50:33.801Z,50.80
2019-04-28T06:53:03.130Z,51.70
2019-04-28T06:55:32.296Z,52.60
2019-04-28T06:58:01.447Z,53.20
2019-04-28T07:00:30.575Z,54.50
2019-04-28T07:02:59.781Z,56.10
2019-04-28T07:05:28.937Z,57.20
2019-04-28T07:07:58.233Z,57.60
2019-04-28T07:10:27.465Z,57.60
2019-04-28T07:12:56.627Z,56.60
2019-04-28T07:15:25.793Z,56.10
2019-04-28T07:17:54.921Z,56.60
2019-04-28T07:20:32.645Z,57.10
2019-04-28T07:23:01.783Z,58.10
2019-04-28T07:25:31.131Z,58.80
2019-04-28T07:28:00.317Z,58.00
2019-04-28T07:30:29.671Z,56.00
2019-04-28T07:32:58.837Z,55.20
2019-04-28T07:35:28.051Z,53.90
2019-04-28T07:37:57.273Z,52.10
2019-04-28T07:40:26.636Z,50.60
2019-04-28T07:42:55.840Z,50.10
2019-04-28T07:45:25.141Z,48.80
2019-04-28T07:47:54.388Z,44.30
2019-04-28T07:50:23.621Z,40.80
2019-04-28T07:53:00.196Z,41.80
2019-04-28T07:55:29.356Z,43.40
2019-04-28T07:58:01.454Z,43.60
2019-04-28T08:00:37.351Z,45.10
2019-04-28T08:03:07.440Z,44.10
2019-04-28T08:05:36.622Z,40.90
2019-04-28T08:08:05.916Z,36.40
2019-04-28T08:10:35.353Z,35.80
2019-04-28T08:13:04.554Z,37.60
2019-04-28T08:15:33.834Z,39.80
2019-04-28T08:18:03.075Z,42.60
2019-04-28T08:20:32.606Z,44.20
2019-04-28T08:23:01.892Z,45.00
2019-04-28T08:25:31.102Z,46.20
2019-04-28T08:28:00.610Z,48.10
2019-04-28T08:30:29.824Z,49.20
2019-04-28T08:33:00.642Z,47.10
2019-04-28T08:35:29.936Z,45.70
2019-04-28T08:37:59.157Z,44.30
2019-04-28T08:40:28.443Z,47.10
2019-04-28T08:42:57.641Z,46.90
2019-04-28T08:45:29.468Z,43.00
2019-04-28T08:47:58.738Z,39.70
2019-04-28T08:50:27.957Z,41.20
2019-04-28T08:52:57.132Z,40.90
2019-04-28T08:55:27.514Z,38.20
2019-04-28T08:57:56.778Z,37.60
2019-04-28T09:00:25.920Z,39.10
2019-04-28T09:02:55.099Z,42.30
2019-04-28T09:05:24.362Z,43.40
2019-04-28T09:07:53.569Z,44.00
2019-04-28T09:10:22.849Z,44.60
2019-04-28T09:12:52.173Z,45.60
2019-04-28T09:15:21.398Z,44.50
2019-04-28T09:17:50.638Z,43.40
2019-04-28T09:20:19.815Z,40.70
2019-04-28T09:22:49.108Z,39.50
2019-04-28T09:25:18.276Z,38.60
2019-04-28T09:27:47.457Z,37.00
2019-04-28T09:30:17.763Z,36.30
2019-04-28T09:32:46.932Z,35.30
2019-04-28T09:35:16.259Z,34.80
2019-04-28T09:37:45.454Z,36.10
2019-04-28T09:40:16.092Z,37.00
2019-04-28T09:42:56.107Z,36.40
2019-04-28T09:45:36.130Z,35.70
2019-04-28T09:48:05.340Z,35.60
2019-04-28T09:50:34.464Z,36.00
2019-04-28T09:53:03.690Z,35.10
2019-04-28T09:55:32.839Z,34.60
2019-04-28T09:58:02.031Z,36.30
2019-04-28T10:00:31.192Z,37.50
2019-04-28T10:03:00.429Z,37.70
2019-04-28T10:05:29.656Z,36.60
2019-04-28T10:07:58.830Z,35.60
2019-04-28T10:10:27.977Z,35.40
2019-04-28T10:12:57.227Z,35.30
2019-04-28T10:15:26.475Z,36.10
2019-04-28T10:17:55.641Z,38.60
2019-04-28T10:20:24.897Z,38.70
2019-04-28T10:22:54.143Z,41.20
2019-04-28T10:25:23.350Z,41.90
2019-04-28T10:27:52.549Z,39.70
2019-04-28T10:30:21.847Z,38.70
2019-04-28T10:32:51.027Z,38.10
2019-04-28T10:35:20.205Z,33.70
2019-04-28T10:37:50.485Z,30.60
2019-04-28T10:40:34.901Z,31.40
2019-04-28T10:43:04.053Z,35.40
2019-04-28T10:45:35.113Z,37.20
2019-04-28T10:48:04.321Z,37.30
2019-04-28T10:50:33.539Z,38.30
2019-04-28T10:53:05.586Z,36.40
2019-04-28T10:55:34.763Z,34.10
2019-04-28T10:58:04.004Z,35.30
2019-04-28T11:00:34.901Z,34.10
2019-04-28T11:03:04.141Z,33.00
2019-04-28T11:05:35.915Z,30.40
2019-04-28T11:08:07.157Z,27.40
2019-04-28T11:10:36.412Z,26.70
2019-04-28T11:13:07.176Z,28.50
2019-04-28T11:15:37.414Z,31.60
2019-04-28T11:18:08.712Z,34.50
2019-04-28T11:20:37.976Z,36.90
2019-04-28T11:23:10.373Z,38.30
2019-04-28T11:25:41.036Z,40.20
2019-04-28T11:28:10.436Z,42.00
2019-04-28T11:30:39.694Z,43.50
2019-04-28T11:33:28.957Z,43.40
2019-04-28T11:36:06.473Z,41.30
2019-04-28T11:38:35.617Z,33.80
2019-04-28T11:41:05.197Z,34.30
2019-04-28T11:43:35.597Z,37.20
2019-04-28T11:46:06.623Z,37.70
2019-04-28T11:48:35.919Z,39.30
2019-04-28T11:51:05.561Z,40.80
2019-04-28T11:53:36.421Z,42.10
2019-04-28T11:56:05.674Z,42.60
2019-04-28T11:58:34.949Z,43.40
2019-04-28T12:01:05.450Z,43.90
2019-04-28T12:03:34.612Z,43.70
2019-04-28T12:06:03.857Z,43.60
2019-04-28T12:08:33.124Z,44.20
2019-04-28T12:11:09.953Z,44.50
2019-04-28T12:13:46.554Z,44.60
2019-04-28T12:16:23.107Z,43.80
2019-04-28T12:18:56.891Z,43.10
2019-04-28T12:21:26.167Z,40.70
2019-04-28T12:23:55.326Z,38.60
2019-04-28T12:26:24.569Z,37.90
2019-04-28T12:28:54.831Z,38.70
2019-04-28T12:31:24.318Z,40.20
2019-04-28T12:33:53.740Z,40.70
2019-04-28T12:36:22.906Z,41.10
2019-04-28T12:38:52.086Z,42.20
2019-04-28T12:41:21.316Z,42.30
2019-04-28T12:43:50.543Z,43.90
2019-04-28T12:46:19.841Z,45.40
2019-04-28T12:48:50.683Z,45.60
2019-04-28T12:51:19.930Z,45.00
2019-04-28T12:53:50.721Z,44.50
2019-04-28T12:56:19.886Z,44.50
2019-04-28T12:58:50.751Z,43.90
2019-04-28T13:01:24.361Z,43.60
2019-04-28T13:04:11.355Z,45.10
2019-04-28T13:06:40.525Z,44.90
2019-04-28T13:09:09.662Z,44.90
2019-04-28T13:11:40.541Z,45.50
2019-04-28T13:14:09.740Z,45.10
2019-04-28T13:16:39.017Z,45.00
2019-04-28T13:19:08.255Z,44.70
2019-04-28T13:21:40.133Z,45.00
2019-04-28T13:24:09.334Z,45.40
2019-04-28T13:26:38.648Z,46.00
2019-04-28T13:29:07.838Z,45.50
2019-04-28T13:31:36.998Z,44.80
2019-04-28T13:34:07.861Z,44.40
2019-04-28T13:36:37.029Z,44.10
2019-04-28T13:39:09.763Z,43.70
2019-04-28T13:41:38.957Z,43.10
2019-04-28T13:44:09.746Z,43.20
2019-04-28T13:46:39.063Z,42.50
2019-04-28T13:49:10.859Z,42.70
2019-04-28T13:51:40.056Z,43.00
2019-04-28T13:54:10.854Z,41.80
2019-04-28T13:56:40.053Z,41.90
2019-04-28T13:59:10.824Z,41.50
2019-04-28T14:01:53.933Z,41.00
2019-04-28T14:04:24.814Z,37.90
2019-04-28T14:06:55.061Z,38.20
2019-04-28T14:09:24.233Z,37.60
2019-04-28T14:11:53.514Z,37.90
2019-04-28T14:14:22.754Z,39.40
2019-04-28T14:16:52.044Z,40.60
2019-04-28T14:19:21.333Z,41.20
2019-04-28T14:22:09.972Z,42.60
2019-04-28T14:24:39.194Z,42.20
2019-04-28T14:27:08.422Z,42.20
2019-04-28T14:29:37.720Z,41.90
2019-04-28T14:32:06.944Z,42.30
2019-04-28T14:34:36.111Z,43.10
2019-04-28T14:37:06.413Z,43.30
2019-04-28T14:39:35.640Z,42.20
2019-04-28T14:42:04.857Z,41.40
2019-04-28T14:44:34.001Z,41.40
2019-04-28T14:47:03.237Z,41.00
2019-04-28T14:49:32.655Z,39.80
2019-04-28T14:52:01.904Z,39.80
2019-04-28T14:54:31.132Z,40.50
2019-04-28T14:57:00.342Z,40.40
2019-04-28T14:59:29.586Z,40.60
2019-04-28T15:02:12.683Z,40.90
2019-04-28T15:04:49.229Z,41.40
2019-04-28T15:07:35.440Z,41.80
2019-04-28T15:10:25.767Z,42.20
2019-04-28T15:12:56.688Z,43.20
2019-04-28T15:15:25.914Z,44.70
2019-04-28T15:17:55.093Z,45.90
2019-04-28T15:20:24.268Z,47.60
2019-04-28T15:22:54.592Z,48.60
2019-04-28T15:25:23.795Z,50.30
2019-04-28T15:27:53.034Z,49.60
2019-04-28T15:30:23.302Z,50.40
2019-04-28T15:32:52.556Z,49.00
2019-04-28T15:35:21.750Z,48.80
2019-04-28T15:37:50.912Z,48.20
2019-04-28T15:40:20.119Z,47.60
2019-04-28T15:42:49.337Z,48.10
2019-04-28T15:45:18.607Z,46.70
2019-04-28T15:47:47.777Z,46.40
2019-04-28T15:50:17.070Z,46.60
2019-04-28T15:52:46.306Z,46.60
2019-04-28T15:55:26.435Z,46.80
2019-04-28T15:57:55.665Z,46.70
2019-04-28T16:00:24.920Z,46.80
2019-04-28T16:02:54.077Z,46.70
2019-04-28T16:05:23.544Z,46.90
2019-04-28T16:07:52.702Z,46.70
2019-04-28T16:10:22.004Z,46.80
2019-04-28T16:12:51.186Z,46.50
2019-04-28T16:15:20.531Z,46.70
2019-04-28T16:17:49.746Z,46.90
2019-04-28T16:20:19.024Z,46.90
2019-04-28T16:22:48.320Z,47.20
2019-04-28T16:25:17.654Z,47.30
2019-04-28T16:27:47.166Z,47.40
2019-04-28T16:30:16.511Z,47.70
2019-04-28T16:32:45.731Z,47.60
2019-04-28T16:35:15.027Z,47.30
2019-04-28T16:37:44.193Z,47.70
2019-04-28T16:40:13.360Z,48.00
2019-04-28T16:42:43.749Z,48.30
2019-04-28T16:45:14.375Z,48.80
2019-04-28T16:47:44.599Z,48.90
2019-04-28T16:50:13.855Z,49.00
2019-04-28T16:52:43.042Z,49.30
2019-04-28T16:55:30.740Z,49.70
2019-04-28T16:58:13.986Z,50.30
2019-04-28T17:00:51.209Z,50.20
2019-04-28T17:03:21.668Z,50.50
2019-04-28T17:05:50.954Z,50.60
2019-04-28T17:08:20.427Z,50.90
2019-04-28T17:10:49.744Z,51.50
2019-04-28T17:13:19.064Z,51.70
2019-04-28T17:15:48.285Z,51.80
2019-04-28T17:18:17.899Z,52.00
2019-04-28T17:20:48.863Z,54.20
2019-04-28T17:23:18.770Z,55.80
2019-04-28T17:25:48.590Z,56.60
2019-04-28T17:28:17.864Z,57.20
2019-04-28T17:30:47.181Z,58.20
2019-04-28T17:33:16.581Z,58.60
2019-04-28T17:35:45.770Z,59.10
2019-04-28T17:38:15.362Z,59.70
2019-04-28T17:40:45.094Z,60.40
2019-04-28T17:43:14.546Z,61.90
2019-04-28T17:45:45.273Z,62.60
2019-04-28T17:48:16.115Z,62.70
2019-04-28T17:50:45.517Z,63.60
2019-04-28T17:53:14.798Z,64.50
2019-04-28T17:55:43.954Z,64.80
2019-04-28T17:58:13.225Z,64.90
2019-04-28T18:00:55.680Z,65.40
2019-04-28T18:03:38.589Z,65.20
2019-04-28T18:06:18.519Z,65.40
2019-04-28T18:08:47.802Z,65.40
2019-04-28T18:11:18.667Z,65.90
2019-04-28T18:13:48.218Z,66.60
2019-04-28T18:16:47.214Z,66.50
2019-04-28T18:19:19.703Z,67.00
2019-04-28T18:21:48.917Z,67.80
2019-04-28T18:24:18.203Z,68.60
2019-04-28T18:26:47.466Z,68.80
2019-04-28T18:29:16.898Z,69.40
2019-04-28T18:32:04.329Z,69.90
2019-04-28T18:34:47.181Z,69.30
2019-04-28T18:37:34.519Z,69.30
2019-04-28T18:40:22.011Z,69.50
2019-04-28T18:43:10.853Z,69.70
2019-04-28T18:45:40.079Z,70.00
2019-04-28T18:48:09.332Z,70.40
2019-04-28T18:50:38.570Z,70.60
2019-04-28T18:53:07.769Z,70.80
2019-04-28T18:55:37.128Z,71.10
2019-04-28T18:58:07.423Z,71.00
2019-04-28T19:00:38.459Z,71.30
2019-04-28T19:03:07.658Z,71.70
2019-04-28T19:05:38.769Z,72.30
2019-04-28T19:08:25.994Z,73.50
2019-04-28T19:10:56.914Z,74.20
2019-04-28T19:13:27.877Z,75.00
2019-04-28T19:16:04.841Z,75.40
2019-04-28T19:18:38.561Z,75.90
2019-04-28T19:21:07.862Z,75.80
2019-04-28T19:23:37.483Z,76.00
2019-04-28T19:26:06.872Z,75.20
2019-04-28T19:28:36.239Z,75.90
2019-04-28T19:31:05.712Z,76.20
2019-04-28T19:33:35.113Z,76.30
2019-04-28T19:36:04.444Z,76.30
2019-04-28T19:38:33.783Z,75.80
2019-04-28T19:41:03.024Z,76.20
2019-04-28T19:43:32.207Z,76.30
2019-04-28T19:47:44.414Z,74.70
2019-04-28T19:50:15.304Z,74.10
2019-04-28T19:52:44.565Z,73.90
2019-04-28T19:55:18.496Z,73.90
2019-04-28T19:57:52.092Z,73.60
2019-04-28T20:00:22.923Z,72.80
2019-04-28T20:02:52.326Z,72.70
2019-04-28T20:05:21.548Z,72.50
2019-04-28T20:07:50.838Z,72.30
2019-04-28T20:10:20.066Z,72.50
2019-04-28T20:12:49.363Z,72.60
2019-04-28T20:15:18.885Z,72.80
2019-04-28T20:17:48.213Z,72.80
2019-04-28T20:20:17.431Z,72.90
2019-04-28T20:22:46.743Z,72.70
2019-04-28T20:25:15.985Z,73.30
2019-04-28T20:27:45.362Z,73.60
2019-04-28T20:30:14.583Z,74.60
2019-04-28T20:32:45.474Z,74.60
2019-04-28T20:35:16.651Z,74.70
2019-04-28T20:37:47.681Z,75.70
2019-04-28T20:40:30.894Z,76.20
2019-04-28T20:43:07.166Z,77.30
2019-04-28T20:45:36.416Z,78.90
2019-04-28T20:48:05.716Z,79.20
2019-04-28T20:50:34.932Z,79.90
2019-04-28T20:53:04.271Z,80.20
2019-04-28T20:55:33.426Z,80.20
2019-04-28T20:58:02.580Z,81.00
2019-04-28T21:00:31.826Z,80.40
2019-04-28T21:03:01.267Z,80.50
2019-04-28T21:05:30.452Z,80.60
2019-04-28T21:07:59.614Z,81.50
2019-04-28T21:10:37.649Z,81.60
2019-04-28T21:12:59.739Z,83.20
2019-04-28T21:15:29.019Z,82.80
2019-04-28T21:17:58.178Z,82.70
2019-04-28T21:20:27.430Z,83.10
2019-04-28T21:22:56.642Z,82.70
2019-04-28T21:25:25.792Z,83.30
2019-04-28T21:27:54.929Z,84.30
2019-04-28T21:30:24.082Z,84.90
2019-04-28T21:32:53.305Z,84.70
2019-04-28T21:35:22.514Z,85.50
2019-04-28T21:37:51.673Z,85.20
2019-04-28T21:40:21.203Z,86.30
2019-04-28T21:43:03.908Z,86.10
2019-04-28T21:45:50.297Z,86.00
2019-04-28T21:48:37.076Z,85.00
2019-04-28T21:51:06.254Z,85.90
2019-04-28T21:53:35.430Z,86.00
2019-04-28T21:56:04.857Z,85.70
2019-04-28T21:58:34.975Z,87.00
2019-04-28T22:01:04.585Z,86.10
2019-04-28T22:03:35.332Z,86.50
2019-04-28T22:06:04.585Z,86.40
2019-04-28T22:08:33.801Z,85.60
2019-04-28T22:11:03.225Z,85.10
2019-04-28T22:13:32.456Z,84.40
2019-04-28T22:16:01.594Z,85.10
2019-04-28T22:18:30.761Z,85.60
2019-04-28T22:20:59.916Z,85.90
2019-04-28T22:23:33.681Z,85.50
2019-04-28T22:26:02.833Z,86.30
2019-04-28T22:28:32.009Z,85.40
2019-04-28T22:31:01.173Z,85.80
2019-04-28T22:33:30.391Z,85.70
2019-04-28T22:35:59.537Z,85.00
2019-04-28T22:38:28.679Z,85.00
2019-04-28T22:40:57.837Z,85.10
2019-04-28T22:43:27.157Z,84.60
2019-04-28T22:45:56.346Z,85.00
2019-04-28T22:48:26.425Z,83.90
2019-04-28T22:50:55.697Z,83.90
2019-04-28T22:53:26.538Z,83.80
2019-04-28T22:56:06.616Z,83.40
2019-04-28T22:58:37.420Z,84.50
2019-04-28T23:01:14.281Z,84.50
2019-04-28T23:03:52.010Z,84.30
2019-04-28T23:06:21.169Z,84.00
2019-04-28T23:08:50.320Z,84.70
2019-04-28T23:11:19.474Z,85.10
2019-04-28T23:13:48.622Z,85.60
2019-04-28T23:16:17.768Z,85.30
2019-04-28T23:18:46.988Z,85.60
2019-04-28T23:21:17.794Z,85.60
2019-04-28T23:23:48.033Z,86.00
2019-04-28T23:26:17.205Z,86.30
2019-04-28T23:28:46.476Z,85.20
2019-04-28T23:31:15.651Z,85.00
2019-04-28T23:33:44.844Z,85.80
2019-04-28T23:36:14.002Z,85.50
2019-04-28T23:38:43.154Z,85.00
2019-04-28T23:41:16.407Z,84.50
2019-04-28T23:43:45.551Z,85.10
2019-04-28T23:46:14.706Z,84.90
2019-04-28T23:48:43.844Z,84.80
2019-04-28T23:51:14.634Z,84.80
2019-04-28T23:54:03.898Z,85.00
2019-04-28T23:56:33.047Z,85.50
2019-04-28T23:59:02.199Z,85.40
